sensor_id;sensor_type;location;lat;lon;timestamp;pressure;altitude;pressure_sealevel;temperature;humidity
6453;BME280;3259;51.080;13.712;2023-05-20T00:00:33;101118.31;;;24.73;38.26
6453;BME280;3259;51.080;13.712;2023-05-20T00:03:21;101110.94;;;24.75;38.30
6453;BME280;3259;51.080;13.712;2023-05-20T00:06:11;101114.31;;;24.69;38.41
6453;BME280;3259;51.080;13.712;2023-05-20T00:09:00;101120.97;;;24.73;38.53
6453;BME280;3259;51.080;13.712;2023-05-20T00:11:50;101119.66;;;24.69;38.35
6453;BME280;3259;51.080;13.712;2023-05-20T00:14:39;101110.34;;;24.65;38.34
6453;BME280;3259;51.080;13.712;2023-05-20T00:17:27;101107.03;;;24.63;38.21
6453;BME280;3259;51.080;13.712;2023-05-20T00:20:16;101113.91;;;24.57;38.30
6453;BME280;3259;51.080;13.712;2023-05-20T00:23:05;101097.06;;;24.57;38.76
6453;BME280;3259;51.080;13.712;2023-05-20T00:25:54;101097.91;;;24.57;39.02
6453;BME280;3259;51.080;13.712;2023-05-20T00:28:47;101097.06;;;24.57;38.50
6453;BME280;3259;51.080;13.712;2023-05-20T00:31:36;101096.53;;;24.61;38.82
6453;BME280;3259;51.080;13.712;2023-05-20T00:34:25;101104.03;;;24.58;38.46
6453;BME280;3259;51.080;13.712;2023-05-20T00:37:13;101098.53;;;24.59;38.36
6453;BME280;3259;51.080;13.712;2023-05-20T00:40:02;101094.22;;;24.50;38.95
6453;BME280;3259;51.080;13.712;2023-05-20T00:42:51;101100.22;;;24.52;38.94
6453;BME280;3259;51.080;13.712;2023-05-20T00:45:41;101095.06;;;24.51;38.99
6453;BME280;3259;51.080;13.712;2023-05-20T00:48:38;101108.09;;;24.54;39.31
6453;BME280;3259;51.080;13.712;2023-05-20T00:51:28;101104.03;;;24.58;39.17
6453;BME280;3259;51.080;13.712;2023-05-20T00:54:16;101102.75;;;24.54;39.00
6453;BME280;3259;51.080;13.712;2023-05-20T00:57:07;101107.25;;;24.53;39.24
6453;BME280;3259;51.080;13.712;2023-05-20T00:59:56;101102.75;;;24.54;38.73
6453;BME280;3259;51.080;13.712;2023-05-20T01:02:47;101101.09;;;24.53;38.97
6453;BME280;3259;51.080;13.712;2023-05-20T01:05:37;101097.41;;;24.54;39.26
6453;BME280;3259;51.080;13.712;2023-05-20T01:08:28;101096.25;;;24.56;39.03
6453;BME280;3259;51.080;13.712;2023-05-20T01:11:22;101094.88;;;24.52;39.11
6453;BME280;3259;51.080;13.712;2023-05-20T01:14:15;101102.75;;;24.54;39.00
6453;BME280;3259;51.080;13.712;2023-05-20T01:17:06;101099.06;;;24.55;39.25
6453;BME280;3259;51.080;13.712;2023-05-20T01:20:00;101094.44;;;24.49;39.11
6453;BME280;3259;51.080;13.712;2023-05-20T01:22:54;101094.06;;;24.52;38.97
6453;BME280;3259;51.080;13.712;2023-05-20T01:25:43;101101.41;;;24.50;39.27
6453;BME280;3259;51.080;13.712;2023-05-20T01:28:32;101098.75;;;24.50;39.32
6453;BME280;3259;51.080;13.712;2023-05-20T01:31:23;101091.44;;;24.44;39.20
6453;BME280;3259;51.080;13.712;2023-05-20T01:34:14;101095.97;;;24.43;39.17
6453;BME280;3259;51.080;13.712;2023-05-20T01:37:03;101102.09;;;24.44;39.06
6453;BME280;3259;51.080;13.712;2023-05-20T01:39:54;101103.75;;;24.45;39.46
6453;BME280;3259;51.080;13.712;2023-05-20T01:42:44;101100.56;;;24.49;39.23
6453;BME280;3259;51.080;13.712;2023-05-20T01:45:40;101107.06;;;24.47;39.05
6453;BME280;3259;51.080;13.712;2023-05-20T01:48:29;101103.44;;;24.48;39.17
6453;BME280;3259;51.080;13.712;2023-05-20T01:51:17;101110.44;;;24.49;39.41
6453;BME280;3259;51.080;13.712;2023-05-20T01:54:06;101098.09;;;24.48;39.09
6453;BME280;3259;51.080;13.712;2023-05-20T01:56:58;101103.44;;;24.48;39.08
6453;BME280;3259;51.080;13.712;2023-05-20T01:59:47;101098.44;;;24.45;38.89
6453;BME280;3259;51.080;13.712;2023-05-20T02:02:36;101090.25;;;24.46;39.00
6453;BME280;3259;51.080;13.712;2023-05-20T02:05:25;101093.41;;;24.50;39.35
6453;BME280;3259;51.080;13.712;2023-05-20T02:08:13;101102.06;;;24.52;38.81
6453;BME280;3259;51.080;13.712;2023-05-20T02:11:02;101088.41;;;24.47;39.25
6453;BME280;3259;51.080;13.712;2023-05-20T02:13:52;101096.09;;;24.50;38.95
6453;BME280;3259;51.080;13.712;2023-05-20T02:16:41;101102.94;;;24.44;39.27
6453;BME280;3259;51.080;13.712;2023-05-20T02:19:30;101099.75;;;24.49;39.18
6453;BME280;3259;51.080;13.712;2023-05-20T02:22:18;101094.06;;;24.52;39.04
6453;BME280;3259;51.080;13.712;2023-05-20T02:25:08;101093.59;;;24.48;39.11
6453;BME280;3259;51.080;13.712;2023-05-20T02:27:57;101095.59;;;24.46;38.93
6453;BME280;3259;51.080;13.712;2023-05-20T02:30:47;101098.44;;;24.45;39.48
6453;BME280;3259;51.080;13.712;2023-05-20T02:33:36;101098.09;;;24.48;39.18
6453;BME280;3259;51.080;13.712;2023-05-20T02:36:25;101087.97;;;24.43;39.15
6453;BME280;3259;51.080;13.712;2023-05-20T02:39:14;101100.09;;;24.46;38.95
6453;BME280;3259;51.080;13.712;2023-05-20T02:42:03;101096.41;;;24.47;39.20
6453;BME280;3259;51.080;13.712;2023-05-20T02:44:52;101094.44;;;24.49;39.17
6453;BME280;3259;51.080;13.712;2023-05-20T02:47:46;101082.44;;;24.45;39.33
6453;BME280;3259;51.080;13.712;2023-05-20T02:50:37;101081.75;;;24.51;38.76
6453;BME280;3259;51.080;13.712;2023-05-20T02:53:26;101073.09;;;24.49;38.81
6453;BME280;3259;51.080;13.712;2023-05-20T02:56:15;101069.41;;;24.50;38.82
6453;BME280;3259;51.080;13.712;2023-05-20T02:59:07;101073.91;;;24.49;39.08
6453;BME280;3259;51.080;13.712;2023-05-20T03:01:55;101069.41;;;24.50;39.18
6453;BME280;3259;51.080;13.712;2023-05-20T03:04:48;101053.41;;;24.50;38.83
6453;BME280;3259;51.080;13.712;2023-05-20T03:07:39;101053.41;;;24.50;39.19
6453;BME280;3259;51.080;13.712;2023-05-20T03:10:28;101042.09;;;24.48;39.06
6453;BME280;3259;51.080;13.712;2023-05-20T03:13:17;101046.75;;;24.46;39.05
6453;BME280;3259;51.080;13.712;2023-05-20T03:16:05;101053.28;;;24.43;39.09
6453;BME280;3259;51.080;13.712;2023-05-20T03:18:54;101062.41;;;24.49;39.13
6453;BME280;3259;51.080;13.712;2023-05-20T03:21:44;101052.09;;;24.46;38.94
6453;BME280;3259;51.080;13.712;2023-05-20T03:24:33;101057.09;;;24.49;38.84
6453;BME280;3259;51.080;13.712;2023-05-20T03:27:22;101055.75;;;24.45;38.93
6453;BME280;3259;51.080;13.712;2023-05-20T03:30:12;101052.44;;;24.43;38.87
6453;BME280;3259;51.080;13.712;2023-05-20T03:33:01;101057.41;;;24.46;39.29
6453;BME280;3259;51.080;13.712;2023-05-20T03:35:51;101061.09;;;24.45;38.78
6453;BME280;3259;51.080;13.712;2023-05-20T03:38:42;101063.97;;;24.43;39.15
6453;BME280;3259;51.080;13.712;2023-05-20T03:41:31;101064.41;;;24.47;39.19
6453;BME280;3259;51.080;13.712;2023-05-20T03:44:20;101060.81;;;24.40;39.05
6453;BME280;3259;51.080;13.712;2023-05-20T03:47:10;101063.63;;;24.38;39.22
6453;BME280;3259;51.080;13.712;2023-05-20T03:49:58;101065.13;;;24.41;38.91
6453;BME280;3259;51.080;13.712;2023-05-20T03:52:47;101070.47;;;24.41;39.43
6453;BME280;3259;51.080;13.712;2023-05-20T03:55:38;101077.81;;;24.39;39.32
6453;BME280;3259;51.080;13.712;2023-05-20T03:58:27;101076.47;;;24.35;39.23
6453;BME280;3259;51.080;13.712;2023-05-20T04:01:17;101069.81;;;24.39;39.56
6453;BME280;3259;51.080;13.712;2023-05-20T04:04:07;101072.00;;;24.35;39.19
6453;BME280;3259;51.080;13.712;2023-05-20T04:06:56;101065.50;;;24.38;39.48
6453;BME280;3259;51.080;13.712;2023-05-20T04:09:46;101070.81;;;24.38;39.70
6453;BME280;3259;51.080;13.712;2023-05-20T04:12:36;101069.97;;;24.37;39.62
6453;BME280;3259;51.080;13.712;2023-05-20T04:15:25;101066.31;;;24.38;39.35
6453;BME280;3259;51.080;13.712;2023-05-20T04:18:16;101063.84;;;24.37;39.16
6453;BME280;3259;51.080;13.712;2023-05-20T04:21:05;101065.50;;;24.38;39.73
6453;BME280;3259;51.080;13.712;2023-05-20T04:23:54;101068.31;;;24.36;39.48
6453;BME280;3259;51.080;13.712;2023-05-20T04:26:42;101061.81;;;24.39;39.33
6453;BME280;3259;51.080;13.712;2023-05-20T04:29:32;101066.66;;;24.35;39.41
6453;BME280;3259;51.080;13.712;2023-05-20T04:32:21;101068.47;;;24.35;39.51
6453;BME280;3259;51.080;13.712;2023-05-20T04:35:10;101076.97;;;24.38;39.18
6453;BME280;3259;51.080;13.712;2023-05-20T04:38:00;101072.84;;;24.36;39.57
6453;BME280;3259;51.080;13.712;2023-05-20T04:40:48;101071.28;;;24.41;39.19
6453;BME280;3259;51.080;13.712;2023-05-20T04:43:40;101075.31;;;24.37;39.63
6453;BME280;3259;51.080;13.712;2023-05-20T04:46:33;101075.66;;;24.34;39.82
6453;BME280;3259;51.080;13.712;2023-05-20T04:49:22;101074.50;;;24.37;39.40
6453;BME280;3259;51.080;13.712;2023-05-20T04:52:11;101075.50;;;24.36;39.76
6453;BME280;3259;51.080;13.712;2023-05-20T04:55:00;101078.81;;;24.38;39.57
6453;BME280;3259;51.080;13.712;2023-05-20T04:57:49;101070.50;;;24.33;39.80
6453;BME280;3259;51.080;13.712;2023-05-20T05:00:38;101070.34;;;24.34;39.56
6453;BME280;3259;51.080;13.712;2023-05-20T05:03:28;101067.50;;;24.36;39.38
6453;BME280;3259;51.080;13.712;2023-05-20T05:06:18;101066.81;;;24.34;39.87
6453;BME280;3259;51.080;13.712;2023-05-20T05:09:07;101066.50;;;24.37;39.58
6453;BME280;3259;51.080;13.712;2023-05-20T05:11:55;101064.47;;;24.39;39.75
6453;BME280;3259;51.080;13.712;2023-05-20T05:14:44;101064.53;;;24.31;39.92
6453;BME280;3259;51.080;13.712;2023-05-20T05:17:33;101061.81;;;24.39;39.30
6453;BME280;3259;51.080;13.712;2023-05-20T05:20:23;101068.47;;;24.35;39.62
6453;BME280;3259;51.080;13.712;2023-05-20T05:23:12;101060.16;;;24.38;39.99
6453;BME280;3259;51.080;13.712;2023-05-20T05:26:01;101063.47;;;24.40;39.57
6453;BME280;3259;51.080;13.712;2023-05-20T05:28:50;101060.81;;;24.40;39.37
6453;BME280;3259;51.080;13.712;2023-05-20T05:31:38;101066.13;;;24.40;39.82
6453;BME280;3259;51.080;13.712;2023-05-20T05:34:27;101068.44;;;24.43;39.57
6453;BME280;3259;51.080;13.712;2023-05-20T05:37:18;101063.63;;;24.38;39.62
6453;BME280;3259;51.080;13.712;2023-05-20T05:40:07;101069.03;;;24.30;39.81
6453;BME280;3259;51.080;13.712;2023-05-20T05:42:56;101062.81;;;24.38;39.96
6453;BME280;3259;51.080;13.712;2023-05-20T05:45:45;101077.16;;;24.37;39.88
6453;BME280;3259;51.080;13.712;2023-05-20T05:48:35;101077.81;;;24.39;39.46
6453;BME280;3259;51.080;13.712;2023-05-20T05:51:23;101072.00;;;24.35;40.00
6453;BME280;3259;51.080;13.712;2023-05-20T05:54:15;101068.47;;;24.35;39.85
6453;BME280;3259;51.080;13.712;2023-05-20T05:57:04;101067.50;;;24.36;39.55
6453;BME280;3259;51.080;13.712;2023-05-20T05:59:53;101060.59;;;24.41;39.85
6453;BME280;3259;51.080;13.712;2023-05-20T06:02:42;101061.56;;;24.26;39.90
6453;BME280;3259;51.080;13.712;2023-05-20T06:05:31;101057.16;;;24.33;39.71
6453;BME280;3259;51.080;13.712;2023-05-20T06:08:20;101052.19;;;24.30;39.60
6453;BME280;3259;51.080;13.712;2023-05-20T06:11:10;101054.47;;;24.41;40.07
6453;BME280;3259;51.080;13.712;2023-05-20T06:13:59;101049.53;;;24.30;40.22
6453;BME280;3259;51.080;13.712;2023-05-20T06:16:48;101053.56;;;24.26;39.97
6453;BME280;3259;51.080;13.712;2023-05-20T06:19:37;101051.84;;;24.33;40.13
6453;BME280;3259;51.080;13.712;2023-05-20T06:22:26;101051.19;;;24.31;39.96
6453;BME280;3259;51.080;13.712;2023-05-20T06:25:15;101059.19;;;24.31;40.42
6453;BME280;3259;51.080;13.712;2023-05-20T06:28:05;101056.22;;;24.26;40.53
6453;BME280;3259;51.080;13.712;2023-05-20T06:30:54;101052.19;;;24.30;40.23
6453;BME280;3259;51.080;13.712;2023-05-20T06:33:43;101049.50;;;24.38;39.98
6453;BME280;3259;51.080;13.712;2023-05-20T06:36:31;101053.63;;;24.40;40.22
6453;BME280;3259;51.080;13.712;2023-05-20T06:39:22;101049.50;;;24.38;39.74
6453;BME280;3259;51.080;13.712;2023-05-20T06:42:10;101053.97;;;24.37;40.08
6453;BME280;3259;51.080;13.712;2023-05-20T06:45:00;101059.50;;;24.36;39.94
6453;BME280;3259;51.080;13.712;2023-05-20T06:47:49;101055.16;;;24.35;40.30
6453;BME280;3259;51.080;13.712;2023-05-20T06:50:40;101046.50;;;24.33;40.04
6453;BME280;3259;51.080;13.712;2023-05-20T06:53:28;101050.19;;;24.32;40.33
6453;BME280;3259;51.080;13.712;2023-05-20T06:56:17;101042.03;;;24.33;40.16
6453;BME280;3259;51.080;13.712;2023-05-20T06:59:06;101034.84;;;24.34;40.08
6453;BME280;3259;51.080;13.712;2023-05-20T07:01:56;101036.97;;;24.38;40.10
6453;BME280;3259;51.080;13.712;2023-05-20T07:04:44;101025.66;;;24.36;39.92
6453;BME280;3259;51.080;13.712;2023-05-20T07:07:33;101021.84;;;24.31;40.04
6453;BME280;3259;51.080;13.712;2023-05-20T07:10:22;101031.22;;;24.27;40.01
6453;BME280;3259;51.080;13.712;2023-05-20T07:13:12;101025.91;;;24.27;40.60
6453;BME280;3259;51.080;13.712;2023-05-20T07:16:00;101021.69;;;24.32;40.18
6453;BME280;3259;51.080;13.712;2023-05-20T07:18:50;101014.03;;;24.29;39.95
6453;BME280;3259;51.080;13.712;2023-05-20T07:21:39;101023.88;;;24.29;40.38
6453;BME280;3259;51.080;13.712;2023-05-20T07:24:28;101008.25;;;24.26;40.38
6453;BME280;3259;51.080;13.712;2023-05-20T07:27:17;101012.22;;;24.30;40.51
6453;BME280;3259;51.080;13.712;2023-05-20T07:30:06;101017.69;;;24.28;40.50
6453;BME280;3259;51.080;13.712;2023-05-20T07:32:55;101015.88;;;24.29;40.38
6453;BME280;3259;51.080;13.712;2023-05-20T07:38:34;101011.56;;;24.28;40.86
6453;BME280;3259;51.080;13.712;2023-05-20T07:41:26;101000.16;;;24.34;40.18
6453;BME280;3259;51.080;13.712;2023-05-20T07:44:17;101006.72;;;24.31;40.41
6453;BME280;3259;51.080;13.712;2023-05-20T07:47:07;100994.84;;;24.34;40.57
6453;BME280;3259;51.080;13.712;2023-05-20T07:49:56;101000.16;;;24.34;40.47
6453;BME280;3259;51.080;13.712;2023-05-20T07:52:46;101009.19;;;24.33;40.60
6453;BME280;3259;51.080;13.712;2023-05-20T07:55:44;100999.16;;;24.35;40.27
6453;BME280;3259;51.080;13.712;2023-05-20T07:58:32;101003.84;;;24.33;40.67
6453;BME280;3259;51.080;13.712;2023-05-20T08:01:21;100997.44;;;24.42;40.66
6453;BME280;3259;51.080;13.712;2023-05-20T08:04:10;100997.94;;;24.45;40.20
6453;BME280;3259;51.080;13.712;2023-05-20T08:06:59;100997.44;;;24.42;40.32
6453;BME280;3259;51.080;13.712;2023-05-20T08:09:50;100996.91;;;24.46;40.35
6453;BME280;3259;51.080;13.712;2023-05-20T08:12:38;100995.44;;;24.44;40.57
6453;BME280;3259;51.080;13.712;2023-05-20T08:15:27;100995.25;;;24.45;40.36
6453;BME280;3259;51.080;13.712;2023-05-20T08:18:16;100976.59;;;24.45;40.66
6453;BME280;3259;51.080;13.712;2023-05-20T08:21:05;100977.06;;;24.49;40.40
6453;BME280;3259;51.080;13.712;2023-05-20T08:23:54;100975.06;;;24.51;40.35
6453;BME280;3259;51.080;13.712;2023-05-20T08:26:47;100971.38;;;24.52;40.68
6453;BME280;3259;51.080;13.712;2023-05-20T08:29:35;100978.09;;;24.48;40.72
6453;BME280;3259;51.080;13.712;2023-05-20T08:32:24;100983.22;;;24.49;40.79
6453;BME280;3259;51.080;13.712;2023-05-20T08:35:13;100978.72;;;24.50;40.76
6453;BME280;3259;51.080;13.712;2023-05-20T08:38:02;100971.38;;;24.52;40.74
6453;BME280;3259;51.080;13.712;2023-05-20T08:40:51;100966.03;;;24.52;40.75
6453;BME280;3259;51.080;13.712;2023-05-20T08:43:41;100957.41;;;24.50;40.93
6453;BME280;3259;51.080;13.712;2023-05-20T08:46:33;100948.88;;;24.54;40.87
6453;BME280;3259;51.080;13.712;2023-05-20T08:49:23;100945.66;;;24.59;40.72
6453;BME280;3259;51.080;13.712;2023-05-20T08:52:12;100944.66;;;24.60;40.73
6453;BME280;3259;51.080;13.712;2023-05-20T08:55:01;100950.28;;;24.65;40.33
6453;BME280;3259;51.080;13.712;2023-05-20T08:57:53;100941.25;;;24.66;41.05
6453;BME280;3259;51.080;13.712;2023-05-20T09:00:44;100938.81;;;24.79;40.83
6453;BME280;3259;51.080;13.712;2023-05-20T09:03:33;100941.28;;;24.95;40.37
6453;BME280;3259;51.080;13.712;2023-05-20T09:06:21;100933.97;;;25.26;39.84
6453;BME280;3259;51.080;13.712;2023-05-20T09:09:11;100944.63;;;25.55;39.42
6453;BME280;3259;51.080;13.712;2023-05-20T09:11:59;100941.84;;;25.48;39.05
6453;BME280;3259;51.080;13.712;2023-05-20T09:14:49;100933.72;;;25.71;39.09
6453;BME280;3259;51.080;13.712;2023-05-20T09:17:39;100936.94;;;25.81;38.89
6453;BME280;3259;51.080;13.712;2023-05-20T09:20:28;100930.16;;;25.84;38.74
6453;BME280;3259;51.080;13.712;2023-05-20T09:23:18;100933.56;;;25.93;38.47
6453;BME280;3259;51.080;13.712;2023-05-20T09:26:08;100933.28;;;26.02;38.48
6453;BME280;3259;51.080;13.712;2023-05-20T09:28:56;100922.22;;;26.05;38.34
6453;BME280;3259;51.080;13.712;2023-05-20T09:31:45;100934.56;;;26.06;38.10
6453;BME280;3259;51.080;13.712;2023-05-20T09:34:36;100927.94;;;26.02;38.41
6453;BME280;3259;51.080;13.712;2023-05-20T09:37:26;100929.22;;;26.06;38.63
6453;BME280;3259;51.080;13.712;2023-05-20T09:40:16;100928.44;;;26.12;38.19
6453;BME280;3259;51.080;13.712;2023-05-20T09:43:07;100926.03;;;26.17;38.24
6453;BME280;3259;51.080;13.712;2023-05-20T09:45:57;100927.03;;;26.16;38.00
6453;BME280;3259;51.080;13.712;2023-05-20T09:48:47;100914.81;;;26.07;38.34
6453;BME280;3259;51.080;13.712;2023-05-20T09:51:39;100911.34;;;26.13;38.47
6453;BME280;3259;51.080;13.712;2023-05-20T09:54:30;100909.59;;;26.20;38.11
6453;BME280;3259;51.080;13.712;2023-05-20T09:57:19;100904.94;;;26.29;38.31
6453;BME280;3259;51.080;13.712;2023-05-20T10:00:08;100891.81;;;26.34;38.14
6453;BME280;3259;51.080;13.712;2023-05-20T10:02:59;100897.97;;;26.34;38.06
6453;BME280;3259;51.080;13.712;2023-05-20T10:05:59;100908.44;;;26.29;38.49
6453;BME280;3259;51.080;13.712;2023-05-20T10:09:04;100890.22;;;26.39;38.12
6453;BME280;3259;51.080;13.712;2023-05-20T10:12:06;100887.59;;;26.46;38.02
6453;BME280;3259;51.080;13.712;2023-05-20T10:15:07;100892.91;;;26.39;38.75
6453;BME280;3259;51.080;13.712;2023-05-20T10:18:07;100880.38;;;26.46;38.34
6453;BME280;3259;51.080;13.712;2023-05-20T10:20:58;100878.84;;;26.37;38.63
6453;BME280;3259;51.080;13.712;2023-05-20T10:23:47;100873.66;;;26.29;38.76
6453;BME280;3259;51.080;13.712;2023-05-20T10:26:39;100876.13;;;26.03;39.61
6453;BME280;3259;51.080;13.712;2023-05-20T10:29:41;100865.78;;;26.00;39.74
6453;BME280;3259;51.080;13.712;2023-05-20T10:32:31;100877.38;;;26.07;39.51
6453;BME280;3259;51.080;13.712;2023-05-20T10:35:22;100879.94;;;26.15;39.73
6453;BME280;3259;51.080;13.712;2023-05-20T10:38:13;100879.94;;;26.15;39.75
6453;BME280;3259;51.080;13.712;2023-05-20T10:41:07;100868.06;;;26.24;39.29
6453;BME280;3259;51.080;13.712;2023-05-20T10:44:02;100859.06;;;26.04;39.72
6453;BME280;3259;51.080;13.712;2023-05-20T10:47:01;100859.69;;;26.06;39.43
6453;BME280;3259;51.080;13.712;2023-05-20T10:50:25;100862.38;;;26.06;39.79
6453;BME280;3259;51.080;13.712;2023-05-20T10:53:15;100863.78;;;26.02;39.77
6453;BME280;3259;51.080;13.712;2023-05-20T10:56:21;100837.91;;;26.09;39.95
6453;BME280;3259;51.080;13.712;2023-05-20T10:59:12;100842.00;;;26.05;39.84
6453;BME280;3259;51.080;13.712;2023-05-20T11:02:02;100837.97;;;26.16;39.98
6453;BME280;3259;51.080;13.712;2023-05-20T11:04:51;100832.16;;;26.12;39.68
6453;BME280;3259;51.080;13.712;2023-05-20T11:07:40;100825.31;;;26.03;39.89
6453;BME280;3259;51.080;13.712;2023-05-20T11:10:29;100830.91;;;26.08;39.92
6453;BME280;3259;51.080;13.712;2023-05-20T11:13:19;100832.06;;;25.99;39.93
6453;BME280;3259;51.080;13.712;2023-05-20T11:16:09;100827.09;;;25.96;39.76
6453;BME280;3259;51.080;13.712;2023-05-20T11:18:58;100828.88;;;25.89;40.10
6453;BME280;3259;51.080;13.712;2023-05-20T11:21:47;100824.94;;;25.86;39.83
6453;BME280;3259;51.080;13.712;2023-05-20T11:24:44;100833.94;;;25.84;40.06
6453;BME280;3259;51.080;13.712;2023-05-20T11:27:33;100828.59;;;25.84;39.94
6453;BME280;3259;51.080;13.712;2023-05-20T11:30:24;100820.44;;;25.86;40.14
6453;BME280;3259;51.080;13.712;2023-05-20T11:33:15;100813.41;;;25.85;40.37
6453;BME280;3259;51.080;13.712;2023-05-20T11:36:04;100818.06;;;25.97;40.23
6453;BME280;3259;51.080;13.712;2023-05-20T11:39:13;100812.56;;;25.84;40.55
6453;BME280;3259;51.080;13.712;2023-05-20T11:42:02;100806.88;;;25.88;40.43
6453;BME280;3259;51.080;13.712;2023-05-20T11:44:51;100802.28;;;25.82;40.16
6453;BME280;3259;51.080;13.712;2023-05-20T11:47:41;100796.53;;;25.84;40.49
6453;BME280;3259;51.080;13.712;2023-05-20T11:50:36;100794.63;;;25.99;40.04
6453;BME280;3259;51.080;13.712;2023-05-20T11:53:25;100784.19;;;26.04;39.81
6453;BME280;3259;51.080;13.712;2023-05-20T11:56:14;100784.47;;;26.16;39.71
6453;BME280;3259;51.080;13.712;2023-05-20T11:59:04;100777.13;;;26.24;39.51
6453;BME280;3259;51.080;13.712;2023-05-20T12:01:52;100780.78;;;26.17;39.61
6453;BME280;3259;51.080;13.712;2023-05-20T12:04:41;100776.66;;;26.14;40.06
6453;BME280;3259;51.080;13.712;2023-05-20T12:07:32;100773.72;;;26.09;39.87
6453;BME280;3259;51.080;13.712;2023-05-20T12:10:20;100774.13;;;26.06;40.05
6453;BME280;3259;51.080;13.712;2023-05-20T12:13:09;100777.59;;;26.34;39.49
6453;BME280;3259;51.080;13.712;2023-05-20T12:15:59;100760.78;;;26.40;39.08
6453;BME280;3259;51.080;13.712;2023-05-20T12:18:48;100761.31;;;26.57;38.87
6453;BME280;3259;51.080;13.712;2023-05-20T12:21:37;100766.75;;;26.42;39.37
6453;BME280;3259;51.080;13.712;2023-05-20T12:24:27;100742.84;;;26.34;39.78
6453;BME280;3259;51.080;13.712;2023-05-20T12:27:15;100746.69;;;26.59;39.52
6453;BME280;3259;51.080;13.712;2023-05-20T12:30:05;100731.66;;;26.58;39.37
6453;BME280;3259;51.080;13.712;2023-05-20T12:32:55;100734.53;;;26.50;39.51
6453;BME280;3259;51.080;13.712;2023-05-20T12:35:44;100725.53;;;26.64;39.76
6453;BME280;3259;51.080;13.712;2023-05-20T12:38:33;100711.59;;;26.75;39.68
6453;BME280;3259;51.080;13.712;2023-05-20T12:41:23;100714.06;;;26.83;39.67
6453;BME280;3259;51.080;13.712;2023-05-20T12:44:11;100708.72;;;26.83;39.77
6453;BME280;3259;51.080;13.712;2023-05-20T12:47:01;100709.56;;;26.90;40.02
6453;BME280;3259;51.080;13.712;2023-05-20T12:49:49;100705.69;;;26.99;39.84
6453;BME280;3259;51.080;13.712;2023-05-20T12:52:38;100709.56;;;26.90;39.75
6453;BME280;3259;51.080;13.712;2023-05-20T12:55:27;100707.34;;;27.00;39.66
6453;BME280;3259;51.080;13.712;2023-05-20T12:58:17;100702.16;;;26.99;39.62
6453;BME280;3259;51.080;13.712;2023-05-20T13:01:06;100700.72;;;26.96;39.63
6453;BME280;3259;51.080;13.712;2023-05-20T13:03:55;100713.31;;;27.09;39.54
6453;BME280;3259;51.080;13.712;2023-05-20T13:06:43;100698.53;;;27.19;39.33
6453;BME280;3259;51.080;13.712;2023-05-20T13:09:32;100696.69;;;27.13;39.27
6453;BME280;3259;51.080;13.712;2023-05-20T13:12:21;100698.09;;;27.09;39.45
6453;BME280;3259;51.080;13.712;2023-05-20T13:15:13;100688.66;;;27.13;39.54
6453;BME280;3259;51.080;13.712;2023-05-20T13:18:02;100692.91;;;26.95;39.82
6453;BME280;3259;51.080;13.712;2023-05-20T13:20:52;100686.94;;;26.99;39.76
6453;BME280;3259;51.080;13.712;2023-05-20T13:23:44;100688.97;;;26.91;39.92
6453;BME280;3259;51.080;13.712;2023-05-20T13:26:35;100693.09;;;26.93;39.61
6453;BME280;3259;51.080;13.712;2023-05-20T13:29:24;100686.06;;;26.86;39.72
6453;BME280;3259;51.080;13.712;2023-05-20T13:32:14;100675.81;;;27.02;39.59
6453;BME280;3259;51.080;13.712;2023-05-20T13:35:04;100686.50;;;26.89;39.90
6453;BME280;3259;51.080;13.712;2023-05-20T13:37:56;100680.31;;;26.95;39.83
6453;BME280;3259;51.080;13.712;2023-05-20T13:40:45;100678.31;;;27.10;39.49
6453;BME280;3259;51.080;13.712;2023-05-20T13:43:34;100672.09;;;27.03;39.44
6453;BME280;3259;51.080;13.712;2023-05-20T13:46:23;100673.34;;;27.07;39.55
6453;BME280;3259;51.080;13.712;2023-05-20T13:49:13;100662.25;;;27.10;39.76
6453;BME280;3259;51.080;13.712;2023-05-20T13:52:03;100657.69;;;27.04;39.76
6453;BME280;3259;51.080;13.712;2023-05-20T13:54:51;100653.59;;;27.15;39.61
6453;BME280;3259;51.080;13.712;2023-05-20T13:57:41;100648.25;;;27.15;39.53
6453;BME280;3259;51.080;13.712;2023-05-20T14:00:30;100660.59;;;27.09;39.58
6453;BME280;3259;51.080;13.712;2023-05-20T14:03:21;100647.84;;;27.11;39.47
6453;BME280;3259;51.080;13.712;2023-05-20T14:06:17;100647.22;;;27.09;39.87
6453;BME280;3259;51.080;13.712;2023-05-20T14:09:06;100640.81;;;27.10;39.59
6453;BME280;3259;51.080;13.712;2023-05-20T14:11:55;100640.81;;;27.10;39.54
6453;BME280;3259;51.080;13.712;2023-05-20T14:14:44;100631.78;;;27.11;39.62
6453;BME280;3259;51.080;13.712;2023-05-20T14:17:33;100624.75;;;27.10;39.32
6453;BME280;3259;51.080;13.712;2023-05-20T14:20:22;100623.94;;;27.16;39.12
6453;BME280;3259;51.080;13.712;2023-05-20T14:23:12;100625.59;;;27.17;39.22
6453;BME280;3259;51.080;13.712;2023-05-20T14:26:01;100622.91;;;27.17;39.37
6453;BME280;3259;51.080;13.712;2023-05-20T14:28:50;100613.25;;;27.16;39.14
6453;BME280;3259;51.080;13.712;2023-05-20T14:31:39;100602.31;;;27.11;39.19
6453;BME280;3259;51.080;13.712;2023-05-20T14:34:27;100600.47;;;27.18;39.29
6453;BME280;3259;51.080;13.712;2023-05-20T14:37:16;100602.06;;;27.06;39.62
6453;BME280;3259;51.080;13.712;2023-05-20T14:40:07;100600.66;;;27.10;39.41
6453;BME280;3259;51.080;13.712;2023-05-20T14:42:56;100593.84;;;27.08;39.47
6453;BME280;3259;51.080;13.712;2023-05-20T14:45:45;100607.44;;;27.06;39.36
6453;BME280;3259;51.080;13.712;2023-05-20T14:48:34;100610.97;;;27.13;39.29
6453;BME280;3259;51.080;13.712;2023-05-20T14:51:23;100610.38;;;27.31;39.19
6453;BME280;3259;51.080;13.712;2023-05-20T14:54:12;100612.81;;;27.32;39.21
6453;BME280;3259;51.080;13.712;2023-05-20T14:57:03;100606.84;;;27.43;39.30
6453;BME280;3259;51.080;13.712;2023-05-20T14:59:52;100597.16;;;27.42;39.17
6453;BME280;3259;51.080;13.712;2023-05-20T15:02:41;100607.47;;;27.45;38.87